createdAt,value
2024-01-30T00:00:45.521Z,8.90
2024-01-30T00:03:12.097Z,8.13
2024-01-30T00:05:38.563Z,8.77
2024-01-30T00:08:05.559Z,8.20
2024-01-30T00:10:32.080Z,8.95
2024-01-30T00:12:58.505Z,8.57
2024-01-30T00:15:24.998Z,8.85
2024-01-30T00:17:53.663Z,8.50
2024-01-30T00:20:21.973Z,8.40
2024-01-30T00:22:48.567Z,8.10
2024-01-30T00:25:15.672Z,7.93
2024-01-30T00:27:42.347Z,7.50
2024-01-30T00:30:09.560Z,8.95
2024-01-30T00:32:36.305Z,7.70
2024-01-30T00:35:03.071Z,8.45
2024-01-30T00:37:29.709Z,7.72
2024-01-30T00:39:56.318Z,8.27
2024-01-30T00:42:24.775Z,8.05
2024-01-30T00:44:51.819Z,8.00
2024-01-30T00:47:18.560Z,8.38
2024-01-30T00:49:45.471Z,8.07
2024-01-30T00:52:12.625Z,8.23
2024-01-30T00:54:39.137Z,8.38
2024-01-30T00:57:05.987Z,7.82
2024-01-30T00:59:32.488Z,8.20
2024-01-30T01:01:59.225Z,7.82
2024-01-30T01:04:25.795Z,7.93
2024-01-30T01:06:52.417Z,7.75
2024-01-30T01:09:19.078Z,8.13
2024-01-30T01:11:45.503Z,8.20
2024-01-30T01:14:11.993Z,6.95
2024-01-30T01:16:38.672Z,7.03
2024-01-30T01:19:05.711Z,7.35
2024-01-30T01:21:32.463Z,8.55
2024-01-30T01:23:58.977Z,7.57
2024-01-30T01:26:25.528Z,8.05
2024-01-30T01:28:52.047Z,7.28
2024-01-30T01:31:19.148Z,7.28
2024-01-30T01:33:46.465Z,7.38
2024-01-30T01:36:14.747Z,7.65
2024-01-30T01:38:41.192Z,6.68
2024-01-30T01:41:07.662Z,7.10
2024-01-30T01:43:34.133Z,7.20
2024-01-30T01:46:00.725Z,6.88
2024-01-30T01:48:28.027Z,7.03
2024-01-30T01:50:54.842Z,6.65
2024-01-30T01:53:21.763Z,7.32
2024-01-30T01:55:48.734Z,7.63
2024-01-30T01:58:16.008Z,7.13
2024-01-30T02:00:43.214Z,7.40
2024-01-30T02:03:13.061Z,7.88
2024-01-30T02:05:40.587Z,6.68
2024-01-30T02:08:08.089Z,6.53
2024-01-30T02:10:35.531Z,7.80
2024-01-30T02:13:02.122Z,6.68
2024-01-30T02:15:30.236Z,6.53
2024-01-30T02:17:56.709Z,6.97
2024-01-30T02:20:26.384Z,7.63
2024-01-30T02:22:55.520Z,7.72
2024-01-30T02:25:30.813Z,7.00
2024-01-30T02:27:57.348Z,6.85
2024-01-30T02:30:23.909Z,7.10
2024-01-30T02:32:50.356Z,6.93
2024-01-30T02:35:16.923Z,6.22
2024-01-30T02:37:43.385Z,6.95
2024-01-30T02:40:10.051Z,7.13
2024-01-30T02:42:36.525Z,6.65
2024-01-30T02:45:02.977Z,6.65
2024-01-30T02:47:29.430Z,6.90
2024-01-30T02:49:56.590Z,6.55
2024-01-30T02:52:23.558Z,6.70
2024-01-30T02:54:50.064Z,6.32
2024-01-30T02:57:16.736Z,7.28
2024-01-30T02:59:43.197Z,7.05
2024-01-30T03:02:09.743Z,6.72
2024-01-30T03:04:36.282Z,6.45
2024-01-30T03:07:03.019Z,7.25
2024-01-30T03:09:29.603Z,7.10
2024-01-30T03:11:56.012Z,6.93
2024-01-30T03:14:22.528Z,7.78
2024-01-30T03:16:48.959Z,7.65
2024-01-30T03:19:15.465Z,7.93
2024-01-30T03:21:41.996Z,7.93
2024-01-30T03:24:08.420Z,8.55
2024-01-30T03:26:34.801Z,9.20
2024-01-30T03:29:01.284Z,7.97
2024-01-30T03:31:27.885Z,8.82
2024-01-30T03:33:54.418Z,7.88
2024-01-30T03:36:21.480Z,9.32
2024-01-30T03:38:47.960Z,9.10
2024-01-30T03:41:14.617Z,8.77
2024-01-30T03:43:41.886Z,9.20
2024-01-30T03:46:08.396Z,9.50
2024-01-30T03:48:34.900Z,9.68
2024-01-30T03:51:01.731Z,8.48
2024-01-30T03:53:28.228Z,8.55
2024-01-30T03:55:54.780Z,8.43
2024-01-30T03:58:21.321Z,7.50
2024-01-30T04:00:47.844Z,7.72
2024-01-30T04:03:16.664Z,7.70
2024-01-30T04:05:43.414Z,7.20
2024-01-30T04:08:10.364Z,7.63
2024-01-30T04:10:36.788Z,7.18
2024-01-30T04:13:03.374Z,7.60
2024-01-30T04:15:30.632Z,6.95
2024-01-30T04:18:00.424Z,6.28
2024-01-30T04:20:27.112Z,6.15
2024-01-30T04:22:53.530Z,6.70
2024-01-30T04:25:20.076Z,5.88
2024-01-30T04:27:46.704Z,6.05
2024-01-30T04:30:13.404Z,5.28
2024-01-30T04:32:39.843Z,5.85
2024-01-30T04:35:10.159Z,6.72
2024-01-30T04:37:38.370Z,4.82
2024-01-30T04:40:06.529Z,5.72
2024-01-30T04:42:33.060Z,6.35
2024-01-30T04:44:59.505Z,6.22
2024-01-30T04:47:25.951Z,5.60
2024-01-30T04:49:53.097Z,6.00
2024-01-30T04:52:19.681Z,5.60
2024-01-30T04:54:46.171Z,6.55
2024-01-30T04:57:13.374Z,6.00
2024-01-30T04:59:40.805Z,5.72
2024-01-30T05:02:08.316Z,5.40
2024-01-30T05:04:34.987Z,5.85
2024-01-30T05:07:01.527Z,5.30
2024-01-30T05:09:28.084Z,5.75
2024-01-30T05:11:54.506Z,5.25
2024-01-30T05:14:20.921Z,6.05
2024-01-30T05:16:48.497Z,6.35
2024-01-30T05:19:15.752Z,6.60
2024-01-30T05:21:42.818Z,6.38
2024-01-30T05:24:11.127Z,5.18
2024-01-30T05:26:37.698Z,5.85
2024-01-30T05:29:04.377Z,6.10
2024-01-30T05:31:31.053Z,4.70
2024-01-30T05:33:57.666Z,5.45
2024-01-30T05:36:24.244Z,6.18
2024-01-30T05:38:50.736Z,5.63
2024-01-30T05:41:17.189Z,5.30
2024-01-30T05:43:43.651Z,5.38
2024-01-30T05:46:10.551Z,7.28
2024-01-30T05:48:37.190Z,5.85
2024-01-30T05:51:05.148Z,6.68
2024-01-30T05:53:31.790Z,6.25
2024-01-30T05:55:58.569Z,6.15
2024-01-30T05:58:25.154Z,6.20
2024-01-30T06:00:51.761Z,5.65
2024-01-30T06:03:18.252Z,5.63
2024-01-30T06:05:44.679Z,5.65
2024-01-30T06:08:11.403Z,6.20
2024-01-30T06:10:37.928Z,5.93
2024-01-30T06:13:04.621Z,5.45
2024-01-30T06:15:31.092Z,6.40
2024-01-30T06:17:57.665Z,5.57
2024-01-30T06:20:24.260Z,6.38
2024-01-30T06:22:50.907Z,6.03
2024-01-30T06:25:17.899Z,5.45
2024-01-30T06:27:44.834Z,5.93
2024-01-30T06:30:11.919Z,4.93
2024-01-30T06:32:38.804Z,7.10
2024-01-30T06:35:07.098Z,5.95
2024-01-30T06:40:00.160Z,5.60
2024-01-30T06:42:26.649Z,5.55
2024-01-30T06:44:53.408Z,6.05
2024-01-30T06:47:20.117Z,4.78
2024-01-30T06:49:46.667Z,5.78
2024-01-30T06:52:13.248Z,5.25
2024-01-30T06:54:41.104Z,4.28
2024-01-30T06:59:45.553Z,5.82
2024-01-30T07:02:12.521Z,5.70
2024-01-30T07:04:41.543Z,6.05
2024-01-30T07:07:13.650Z,5.93
2024-01-30T07:09:40.761Z,5.30
2024-01-30T07:12:07.524Z,5.53
2024-01-30T07:14:34.520Z,6.40
2024-01-30T07:17:00.971Z,6.45
2024-01-30T07:19:27.656Z,4.65
2024-01-30T07:21:54.154Z,6.35
2024-01-30T07:24:20.902Z,5.68
2024-01-30T07:26:47.464Z,5.68
2024-01-30T07:29:14.143Z,5.97
2024-01-30T07:31:41.719Z,4.60
2024-01-30T07:34:08.300Z,5.20
2024-01-30T07:36:34.744Z,5.20
2024-01-30T07:39:01.221Z,6.22
2024-01-30T07:41:27.903Z,5.97
2024-01-30T07:43:54.941Z,6.07
2024-01-30T07:46:21.517Z,5.38
2024-01-30T07:48:48.059Z,4.93
2024-01-30T07:51:14.580Z,5.85
2024-01-30T07:53:43.020Z,5.70
2024-01-30T07:56:09.620Z,5.25
2024-01-30T07:58:36.292Z,5.60
2024-01-30T08:01:03.420Z,5.20
2024-01-30T08:03:30.069Z,5.68
2024-01-30T08:05:56.719Z,5.55
2024-01-30T08:08:23.340Z,6.43
2024-01-30T08:10:50.940Z,5.63
2024-01-30T08:13:17.627Z,5.72
2024-01-30T08:15:44.392Z,6.38
2024-01-30T08:18:11.070Z,4.85
2024-01-30T08:20:37.523Z,5.93
2024-01-30T08:23:04.485Z,6.13
2024-01-30T08:25:31.289Z,5.60
2024-01-30T08:27:58.473Z,6.43
2024-01-30T08:30:25.729Z,5.50
2024-01-30T08:32:52.907Z,5.18
2024-01-30T08:35:20.146Z,5.13
2024-01-30T08:37:46.737Z,5.88
2024-01-30T08:40:13.473Z,5.40
2024-01-30T08:42:40.106Z,6.03
2024-01-30T08:45:07.107Z,5.50
2024-01-30T08:47:34.598Z,6.38
2024-01-30T08:50:01.414Z,5.35
2024-01-30T08:52:28.096Z,6.45
2024-01-30T08:54:55.545Z,6.22
2024-01-30T08:57:22.043Z,6.95
2024-01-30T08:59:48.989Z,5.32
2024-01-30T09:02:17.301Z,5.88
2024-01-30T09:04:44.114Z,5.68
2024-01-30T09:07:11.593Z,6.28
2024-01-30T09:09:42.323Z,5.70
2024-01-30T09:12:10.664Z,5.53
2024-01-30T09:14:38.618Z,5.63
2024-01-30T09:19:32.112Z,5.85
2024-01-30T09:21:58.987Z,5.32
2024-01-30T09:24:27.233Z,5.70
2024-01-30T09:26:53.918Z,6.30
2024-01-30T09:29:20.410Z,4.47
2024-01-30T09:31:47.071Z,6.03
2024-01-30T09:34:14.682Z,5.93
2024-01-30T09:39:08.709Z,6.15
2024-01-30T09:41:45.921Z,4.65
2024-01-30T09:44:13.335Z,4.72
2024-01-30T09:46:41.463Z,5.60
2024-01-30T09:49:10.059Z,5.50
2024-01-30T09:51:37.187Z,5.25
2024-01-30T09:54:04.123Z,5.55
2024-01-30T09:56:30.728Z,5.78
2024-01-30T09:58:57.187Z,6.18
2024-01-30T10:01:23.868Z,5.70
2024-01-30T10:03:53.617Z,5.65
2024-01-30T10:06:22.504Z,6.10
2024-01-30T10:08:49.783Z,6.07
2024-01-30T10:11:16.295Z,5.57
2024-01-30T10:13:42.772Z,5.25
2024-01-30T10:16:09.671Z,5.97
2024-01-30T10:18:36.120Z,5.15
2024-01-30T10:21:02.559Z,5.53
2024-01-30T10:23:35.347Z,5.88
2024-01-30T10:26:05.005Z,5.30
2024-01-30T10:28:31.866Z,5.45
2024-01-30T10:31:02.803Z,5.95
2024-01-30T10:33:32.163Z,6.18
2024-01-30T10:36:06.249Z,5.68
2024-01-30T10:38:33.874Z,5.15
2024-01-30T10:43:34.004Z,5.18
2024-01-30T10:46:13.195Z,5.78
2024-01-30T10:48:45.671Z,4.72
2024-01-30T10:51:14.021Z,5.40
2024-01-30T10:53:40.681Z,6.30
2024-01-30T10:56:08.945Z,5.07
2024-01-30T10:58:35.482Z,5.40
2024-01-30T11:01:03.431Z,5.03
2024-01-30T11:03:30.712Z,4.93
2024-01-30T11:06:01.056Z,3.85
2024-01-30T11:08:29.716Z,5.03
2024-01-30T11:10:59.962Z,4.70
2024-01-30T11:13:33.178Z,4.65
2024-01-30T11:16:06.568Z,4.13
2024-01-30T11:18:34.590Z,4.55
2024-01-30T11:21:03.017Z,5.00
2024-01-30T11:23:29.962Z,4.28
2024-01-30T11:25:57.543Z,4.13
2024-01-30T11:28:24.742Z,3.83
2024-01-30T11:30:54.040Z,3.80
2024-01-30T11:33:34.841Z,3.38
2024-01-30T11:36:03.194Z,2.65
2024-01-30T11:38:30.273Z,2.42
2024-01-30T11:40:58.370Z,2.35
2024-01-30T11:43:25.272Z,2.58
2024-01-30T11:45:52.201Z,2.85
2024-01-30T11:48:19.065Z,2.47
2024-01-30T11:50:45.755Z,2.45
2024-01-30T11:53:12.422Z,2.40
2024-01-30T11:55:39.286Z,1.77
2024-01-30T11:58:06.410Z,1.27
2024-01-30T12:00:34.453Z,1.40
2024-01-30T12:03:02.420Z,1.55
2024-01-30T12:07:56.167Z,1.38
2024-01-30T12:10:22.773Z,1.33
2024-01-30T12:12:51.101Z,1.33
2024-01-30T12:15:19.289Z,1.75
2024-01-30T12:17:45.725Z,1.40
2024-01-30T12:20:14.993Z,1.45
2024-01-30T12:22:43.829Z,2.30
2024-01-30T12:25:14.789Z,2.10
2024-01-30T12:27:44.474Z,1.55
2024-01-30T12:30:14.346Z,1.92
2024-01-30T12:32:45.560Z,2.40
2024-01-30T12:35:13.614Z,1.83
2024-01-30T12:37:41.182Z,2.65
2024-01-30T12:40:12.207Z,2.20
2024-01-30T12:42:38.785Z,1.98
2024-01-30T12:45:06.095Z,1.70
2024-01-30T12:47:35.893Z,1.98
2024-01-30T12:50:02.414Z,2.20
2024-01-30T12:52:30.256Z,1.33
2024-01-30T12:57:23.258Z,1.80
2024-01-30T12:59:50.017Z,1.70
2024-01-30T13:02:17.222Z,2.28
2024-01-30T13:04:46.796Z,1.80
2024-01-30T13:07:14.362Z,2.35
2024-01-30T13:09:41.201Z,2.70
2024-01-30T13:12:08.075Z,2.22
2024-01-30T13:14:34.529Z,2.20
2024-01-30T13:17:01.281Z,1.42
2024-01-30T13:19:28.275Z,1.35
2024-01-30T13:21:54.822Z,2.10
2024-01-30T13:24:22.574Z,1.75
2024-01-30T13:29:16.322Z,1.58
2024-01-30T13:31:43.072Z,1.30
2024-01-30T13:34:09.739Z,1.10
2024-01-30T13:36:36.272Z,1.00
2024-01-30T13:39:03.847Z,0.90
2024-01-30T13:41:31.111Z,0.93
2024-01-30T13:43:57.678Z,1.00
2024-01-30T13:46:24.147Z,1.10
2024-01-30T13:48:51.394Z,1.10
2024-01-30T13:51:18.345Z,1.35
2024-01-30T13:53:44.889Z,1.35
2024-01-30T13:56:11.361Z,1.10
2024-01-30T13:58:38.214Z,1.30
2024-01-30T14:01:06.018Z,1.35
2024-01-30T14:03:33.265Z,1.60
2024-01-30T14:06:00.421Z,1.40
2024-01-30T14:08:29.051Z,1.30
2024-01-30T14:10:58.733Z,1.60
2024-01-30T14:13:26.532Z,1.40
2024-01-30T14:15:53.871Z,1.70
2024-01-30T14:18:20.703Z,1.80
2024-01-30T14:20:47.193Z,1.58
2024-01-30T14:23:13.697Z,1.70
2024-01-30T14:25:40.319Z,1.83
2024-01-30T14:28:07.992Z,1.10
2024-01-30T14:30:34.721Z,1.42
2024-01-30T14:33:01.214Z,1.35
2024-01-30T14:35:27.800Z,1.23
2024-01-30T14:37:54.555Z,1.23
2024-01-30T14:40:21.279Z,0.85
2024-01-30T14:42:47.868Z,1.35
2024-01-30T14:45:14.371Z,1.20
2024-01-30T14:47:42.069Z,1.38
2024-01-30T14:50:09.642Z,1.52
2024-01-30T14:52:37.036Z,1.33
2024-01-30T14:55:03.732Z,1.40
2024-01-30T14:57:30.879Z,1.55
2024-01-30T14:59:57.470Z,2.00
2024-01-30T15:02:24.160Z,1.60
2024-01-30T15:04:50.785Z,2.33
2024-01-30T15:07:22.717Z,2.55
2024-01-30T15:09:55.021Z,2.47
2024-01-30T15:12:21.546Z,2.13
2024-01-30T15:14:51.769Z,2.15
2024-01-30T15:17:19.587Z,2.85
2024-01-30T15:19:46.022Z,3.00
2024-01-30T15:22:12.590Z,2.75
2024-01-30T15:24:39.055Z,2.85
2024-01-30T15:27:05.820Z,3.17
2024-01-30T15:29:32.538Z,3.30
2024-01-30T15:31:58.960Z,3.10
2024-01-30T15:34:25.485Z,3.75
2024-01-30T15:36:52.725Z,3.42
2024-01-30T15:39:19.480Z,3.53
2024-01-30T15:41:45.965Z,4.43
2024-01-30T15:44:12.473Z,3.38
2024-01-30T15:46:38.981Z,3.42
2024-01-30T15:49:05.885Z,3.80
2024-01-30T15:51:32.409Z,3.38
2024-01-30T15:53:59.363Z,2.92
2024-01-30T15:56:26.121Z,3.60
2024-01-30T15:58:53.380Z,3.80
2024-01-30T16:01:20.049Z,6.05
2024-01-30T16:03:46.835Z,3.47
2024-01-30T16:06:13.690Z,3.80
2024-01-30T16:08:40.246Z,8.85
2024-01-30T16:11:06.812Z,5.10
2024-01-30T16:13:33.325Z,6.53
2024-01-30T16:15:59.906Z,3.90
2024-01-30T16:18:27.618Z,4.60
2024-01-30T16:20:54.156Z,3.60
2024-01-30T16:23:20.638Z,4.22
2024-01-30T16:25:47.042Z,4.05
2024-01-30T16:28:13.616Z,3.90
2024-01-30T16:30:40.148Z,4.05
2024-01-30T16:33:08.001Z,7.50
2024-01-30T16:38:13.721Z,4.32
2024-01-30T16:40:40.264Z,8.52
2024-01-30T16:43:06.827Z,14.25
2024-01-30T16:45:33.285Z,7.53
2024-01-30T16:47:59.822Z,3.63
2024-01-30T16:50:26.298Z,15.85
2024-01-30T16:52:52.723Z,19.70
2024-01-30T16:55:20.223Z,10.57
2024-01-30T16:57:46.660Z,6.65
2024-01-30T17:00:13.858Z,5.55
2024-01-30T17:02:40.313Z,3.22
2024-01-30T17:05:15.939Z,2.17
2024-01-30T17:07:50.310Z,2.70
2024-01-30T17:10:18.965Z,3.15
2024-01-30T17:12:45.879Z,2.65
2024-01-30T17:15:12.770Z,27.92
2024-01-30T17:17:39.346Z,3.50
2024-01-30T17:20:08.060Z,5.10
2024-01-30T17:22:35.116Z,5.13
2024-01-30T17:25:01.749Z,2.50
2024-01-30T17:27:28.383Z,2.15
2024-01-30T17:29:55.054Z,2.05
2024-01-30T17:32:21.451Z,2.30
2024-01-30T17:34:48.061Z,2.10
2024-01-30T17:37:14.732Z,1.70
2024-01-30T17:39:41.175Z,1.73
2024-01-30T17:42:07.652Z,2.10
2024-01-30T17:44:37.377Z,2.15
2024-01-30T17:47:04.502Z,2.05
2024-01-30T17:49:31.499Z,2.20
2024-01-30T17:51:57.999Z,2.83
2024-01-30T17:54:24.464Z,2.88
2024-01-30T17:56:50.992Z,2.33
2024-01-30T17:59:22.061Z,6.05
2024-01-30T18:01:49.287Z,3.58
2024-01-30T18:04:18.773Z,6.63
2024-01-30T18:06:52.834Z,4.50
2024-01-30T18:09:23.393Z,2.58
2024-01-30T18:11:49.955Z,2.63
2024-01-30T18:14:16.743Z,2.38
2024-01-30T18:16:43.259Z,6.15
2024-01-30T18:19:10.166Z,6.45
2024-01-30T18:21:37.060Z,3.25
2024-01-30T18:24:03.652Z,2.90
2024-01-30T18:26:30.122Z,3.65
2024-01-30T18:28:57.281Z,2.38
2024-01-30T18:31:24.817Z,3.30
2024-01-30T18:33:52.601Z,3.08
2024-01-30T18:36:20.687Z,4.25
2024-01-30T18:41:16.523Z,1.95
2024-01-30T18:46:11.365Z,2.10
2024-01-30T18:48:38.488Z,1.65
2024-01-30T18:51:06.186Z,4.60
2024-01-30T18:53:32.984Z,3.28
2024-01-30T18:55:59.971Z,2.42
2024-01-30T18:58:26.890Z,3.58
2024-01-30T19:00:53.583Z,3.50
2024-01-30T19:03:20.926Z,3.45
2024-01-30T19:05:48.265Z,2.08
2024-01-30T19:08:15.930Z,4.53
2024-01-30T19:10:44.095Z,6.07
2024-01-30T19:13:11.182Z,3.28
2024-01-30T19:15:37.799Z,2.05
2024-01-30T19:18:04.382Z,2.15
2024-01-30T19:20:30.896Z,1.60
2024-01-30T19:22:58.484Z,2.20
2024-01-30T19:25:26.518Z,2.10
2024-01-30T19:27:53.951Z,2.25
2024-01-30T19:30:20.463Z,2.30
2024-01-30T19:32:46.963Z,2.58
2024-01-30T19:35:13.606Z,2.15
2024-01-30T19:37:40.099Z,2.15
2024-01-30T19:40:07.445Z,2.08
2024-01-30T19:42:34.018Z,2.42
2024-01-30T19:45:00.617Z,1.58
2024-01-30T19:47:27.250Z,2.05
2024-01-30T19:49:53.825Z,2.00
2024-01-30T19:52:20.399Z,2.60
2024-01-30T19:54:47.001Z,1.65
2024-01-30T19:57:13.829Z,2.03
2024-01-30T19:59:40.319Z,2.22
2024-01-30T20:02:07.210Z,2.88
2024-01-30T20:04:35.345Z,2.10
2024-01-30T20:07:02.649Z,2.35
2024-01-30T20:09:29.236Z,1.70
2024-01-30T20:11:55.690Z,2.28
2024-01-30T20:14:22.214Z,2.58
2024-01-30T20:16:48.786Z,2.42
2024-01-30T20:19:15.988Z,2.53
2024-01-30T20:21:44.025Z,2.70
2024-01-30T20:24:10.616Z,2.58
2024-01-30T20:26:38.255Z,2.08
2024-01-30T20:29:04.823Z,2.15
2024-01-30T20:31:33.055Z,2.42
2024-01-30T20:33:59.833Z,2.05
2024-01-30T20:36:26.463Z,2.28
2024-01-30T20:38:52.917Z,1.70
2024-01-30T20:41:19.479Z,3.15
2024-01-30T20:43:46.271Z,1.83
2024-01-30T20:46:16.457Z,2.58
2024-01-30T20:48:46.219Z,1.63
2024-01-30T20:51:12.875Z,1.95
2024-01-30T20:53:41.031Z,1.73
2024-01-30T20:56:08.342Z,1.73
2024-01-30T20:58:35.089Z,1.70
2024-01-30T21:01:01.914Z,1.88
2024-01-30T21:03:30.251Z,1.83
2024-01-30T21:05:59.849Z,1.70
2024-01-30T21:08:27.014Z,2.25
2024-01-30T21:10:54.036Z,2.05
2024-01-30T21:13:20.735Z,1.38
2024-01-30T21:15:47.407Z,1.77
2024-01-30T21:18:15.434Z,1.58
2024-01-30T21:20:42.075Z,1.27
2024-01-30T21:23:08.616Z,1.35
2024-01-30T21:25:35.170Z,1.48
2024-01-30T21:28:01.862Z,1.52
2024-01-30T21:30:28.909Z,1.40
2024-01-30T21:32:56.197Z,1.48
2024-01-30T21:35:22.804Z,1.27
2024-01-30T21:37:49.229Z,1.17
2024-01-30T21:40:18.445Z,1.20
2024-01-30T21:42:46.541Z,2.33
2024-01-30T21:45:14.072Z,1.65
2024-01-30T21:47:40.709Z,1.48
2024-01-30T21:50:07.758Z,1.63
2024-01-30T21:52:34.335Z,1.38
2024-01-30T21:55:00.935Z,1.05
2024-01-30T21:57:28.520Z,2.15
2024-01-30T21:59:55.001Z,1.63
2024-01-30T22:02:21.525Z,1.30
2024-01-30T22:04:49.494Z,1.40
2024-01-30T22:07:17.355Z,1.73
2024-01-30T22:09:43.925Z,1.95
2024-01-30T22:12:10.451Z,1.50
2024-01-30T22:14:37.068Z,2.22
2024-01-30T22:17:04.736Z,1.42
2024-01-30T22:19:31.472Z,1.55
2024-01-30T22:21:58.313Z,2.53
2024-01-30T22:24:24.829Z,2.60
2024-01-30T22:26:51.271Z,2.65
2024-01-30T22:29:17.815Z,2.42
2024-01-30T22:31:44.375Z,5.38
2024-01-30T22:34:10.998Z,2.53
2024-01-30T22:36:37.470Z,3.45
2024-01-30T22:39:05.752Z,1.92
2024-01-30T22:41:32.402Z,1.48
2024-01-30T22:43:59.173Z,1.35
2024-01-30T22:46:25.706Z,1.90
2024-01-30T22:48:52.191Z,1.88
2024-01-30T22:51:19.042Z,3.58
2024-01-30T22:53:48.888Z,2.17
2024-01-30T22:56:15.781Z,2.85
2024-01-30T22:58:42.458Z,1.83
2024-01-30T23:01:09.719Z,1.85
2024-01-30T23:03:36.294Z,2.53
2024-01-30T23:06:03.010Z,2.80
2024-01-30T23:08:29.549Z,1.63
2024-01-30T23:10:55.980Z,2.63
2024-01-30T23:13:22.564Z,3.63
2024-01-30T23:15:49.181Z,1.73
2024-01-30T23:18:16.177Z,1.77
2024-01-30T23:20:42.843Z,2.05
2024-01-30T23:23:09.887Z,1.25
2024-01-30T23:25:36.419Z,3.00
2024-01-30T23:28:06.085Z,2.42
2024-01-30T23:30:32.620Z,3.58
2024-01-30T23:32:59.114Z,3.53
2024-01-30T23:35:25.629Z,5.60
2024-01-30T23:37:52.116Z,3.13
2024-01-30T23:40:18.748Z,1.70
2024-01-30T23:42:45.327Z,4.43
2024-01-30T23:45:12.175Z,4.45
2024-01-30T23:47:38.807Z,3.65
2024-01-30T23:50:05.772Z,3.10
2024-01-30T23:52:34.119Z,2.58
2024-01-30T23:55:00.980Z,3.42
2024-01-30T23:57:27.592Z,9.07
2024-01-30T23:59:54.723Z,3.05
